sensor_id;sensor_type;location;lat;lon;timestamp;P1;durP1;ratioP1;P2;durP2;ratioP2
59938;SDS011;45801;51.810;19.444;2022-10-29T00:03:57;14.70;;;7.40;;
59938;SDS011;45801;51.810;19.444;2022-10-29T00:10:09;13.30;;;8.50;;
59938;SDS011;45801;51.810;19.444;2022-10-29T00:16:24;11.90;;;7.40;;
59938;SDS011;45801;51.810;19.444;2022-10-29T00:22:45;13.50;;;7.30;;
59938;SDS011;45801;51.810;19.444;2022-10-29T00:28:58;12.70;;;6.50;;
59938;SDS011;45801;51.810;19.444;2022-10-29T00:35:17;15.40;;;7.30;;
59938;SDS011;45801;51.810;19.444;2022-10-29T00:41:30;12.60;;;7.80;;
59938;SDS011;45801;51.810;19.444;2022-10-29T00:47:42;15.00;;;7.10;;
59938;SDS011;45801;51.810;19.444;2022-10-29T00:54:03;12.30;;;7.30;;
59938;SDS011;45801;51.810;19.444;2022-10-29T01:00:18;12.30;;;7.30;;
59938;SDS011;45801;51.810;19.444;2022-10-29T01:06:31;13.00;;;7.60;;
59938;SDS011;45801;51.810;19.444;2022-10-29T01:12:55;13.40;;;7.40;;
59938;SDS011;45801;51.810;19.444;2022-10-29T01:29:34;13.50;;;6.40;;
59938;SDS011;45801;51.810;19.444;2022-10-29T01:36:05;11.60;;;6.50;;
59938;SDS011;45801;51.810;19.444;2022-10-29T01:42:39;12.40;;;7.10;;
59938;SDS011;45801;51.810;19.444;2022-10-29T01:49:03;13.00;;;7.00;;
59938;SDS011;45801;51.810;19.444;2022-10-29T01:55:21;12.70;;;7.30;;
59938;SDS011;45801;51.810;19.444;2022-10-29T02:02:00;11.60;;;6.60;;
59938;SDS011;45801;51.810;19.444;2022-10-29T02:08:24;11.70;;;6.70;;
59938;SDS011;45801;51.810;19.444;2022-10-29T02:14:45;11.20;;;6.90;;
59938;SDS011;45801;51.810;19.444;2022-10-29T02:21:02;9.80;;;5.40;;
59938;SDS011;45801;51.810;19.444;2022-10-29T02:37:58;11.50;;;6.30;;
59938;SDS011;45801;51.810;19.444;2022-10-29T02:44:17;11.10;;;5.80;;
59938;SDS011;45801;51.810;19.444;2022-10-29T02:50:29;11.00;;;6.20;;
59938;SDS011;45801;51.810;19.444;2022-10-29T02:56:42;11.90;;;6.80;;
59938;SDS011;45801;51.810;19.444;2022-10-29T03:03:01;10.50;;;6.60;;
59938;SDS011;45801;51.810;19.444;2022-10-29T03:09:13;10.70;;;6.50;;
59938;SDS011;45801;51.810;19.444;2022-10-29T03:15:25;11.20;;;6.80;;
59938;SDS011;45801;51.810;19.444;2022-10-29T03:21:51;11.30;;;6.40;;
59938;SDS011;45801;51.810;19.444;2022-10-29T03:35:37;11.20;;;5.90;;
59938;SDS011;45801;51.810;19.444;2022-10-29T03:41:56;10.50;;;6.00;;
59938;SDS011;45801;51.810;19.444;2022-10-29T03:48:08;11.70;;;7.10;;
59938;SDS011;45801;51.810;19.444;2022-10-29T03:54:20;11.90;;;6.90;;
59938;SDS011;45801;51.810;19.444;2022-10-29T04:04:23;11.90;;;6.20;;
59938;SDS011;45801;51.810;19.444;2022-10-29T04:10:43;13.20;;;6.30;;
59938;SDS011;45801;51.810;19.444;2022-10-29T04:19:44;11.10;;;6.40;;
59938;SDS011;45801;51.810;19.444;2022-10-29T04:33:25;13.30;;;6.40;;
59938;SDS011;45801;51.810;19.444;2022-10-29T04:39:37;11.40;;;6.10;;
59938;SDS011;45801;51.810;19.444;2022-10-29T04:45:57;13.20;;;6.80;;
59938;SDS011;45801;51.810;19.444;2022-10-29T04:52:10;15.00;;;6.50;;
59938;SDS011;45801;51.810;19.444;2022-10-29T04:58:29;12.70;;;6.10;;
59938;SDS011;45801;51.810;19.444;2022-10-29T05:04:42;11.30;;;6.60;;
59938;SDS011;45801;51.810;19.444;2022-10-29T05:10:55;10.10;;;6.60;;
59938;SDS011;45801;51.810;19.444;2022-10-29T05:17:14;13.30;;;6.50;;
59938;SDS011;45801;51.810;19.444;2022-10-29T05:23:27;13.90;;;7.10;;
59938;SDS011;45801;51.810;19.444;2022-10-29T05:29:40;13.60;;;7.20;;
59938;SDS011;45801;51.810;19.444;2022-10-29T05:35:59;14.90;;;7.80;;
59938;SDS011;45801;51.810;19.444;2022-10-29T05:42:12;12.60;;;7.00;;
59938;SDS011;45801;51.810;19.444;2022-10-29T05:48:25;11.70;;;7.00;;
59938;SDS011;45801;51.810;19.444;2022-10-29T05:54:44;12.20;;;6.90;;
59938;SDS011;45801;51.810;19.444;2022-10-29T06:00:56;14.80;;;7.30;;
59938;SDS011;45801;51.810;19.444;2022-10-29T06:07:15;11.60;;;6.50;;
59938;SDS011;45801;51.810;19.444;2022-10-29T06:13:28;14.60;;;7.70;;
59938;SDS011;45801;51.810;19.444;2022-10-29T06:19:40;12.60;;;7.50;;
59938;SDS011;45801;51.810;19.444;2022-10-29T06:26:00;14.80;;;7.00;;
59938;SDS011;45801;51.810;19.444;2022-10-29T06:32:13;13.00;;;7.80;;
59938;SDS011;45801;51.810;19.444;2022-10-29T06:38:25;11.80;;;6.50;;
59938;SDS011;45801;51.810;19.444;2022-10-29T06:44:43;14.30;;;6.60;;
59938;SDS011;45801;51.810;19.444;2022-10-29T06:50:59;13.10;;;7.40;;
59938;SDS011;45801;51.810;19.444;2022-10-29T06:57:12;14.10;;;7.20;;
59938;SDS011;45801;51.810;19.444;2022-10-29T07:03:30;15.60;;;7.80;;
59938;SDS011;45801;51.810;19.444;2022-10-29T07:09:43;11.50;;;7.40;;
59938;SDS011;45801;51.810;19.444;2022-10-29T07:15:55;12.10;;;7.20;;
59938;SDS011;45801;51.810;19.444;2022-10-29T07:22:14;13.40;;;7.30;;
59938;SDS011;45801;51.810;19.444;2022-10-29T07:28:26;16.50;;;7.50;;
59938;SDS011;45801;51.810;19.444;2022-10-29T07:34:39;11.50;;;6.50;;
59938;SDS011;45801;51.810;19.444;2022-10-29T07:40:58;12.60;;;7.20;;
59938;SDS011;45801;51.810;19.444;2022-10-29T07:47:11;12.80;;;6.90;;
59938;SDS011;45801;51.810;19.444;2022-10-29T07:53:23;12.30;;;6.50;;
59938;SDS011;45801;51.810;19.444;2022-10-29T07:59:43;12.90;;;6.50;;
59938;SDS011;45801;51.810;19.444;2022-10-29T08:05:55;15.60;;;6.70;;
59938;SDS011;45801;51.810;19.444;2022-10-29T08:12:09;14.10;;;6.30;;
59938;SDS011;45801;51.810;19.444;2022-10-29T08:18:35;12.10;;;6.50;;
59938;SDS011;45801;51.810;19.444;2022-10-29T08:24:48;15.30;;;7.10;;
59938;SDS011;45801;51.810;19.444;2022-10-29T08:31:07;13.90;;;6.50;;
59938;SDS011;45801;51.810;19.444;2022-10-29T08:37:20;12.10;;;6.60;;
59938;SDS011;45801;51.810;19.444;2022-10-29T08:50:22;16.10;;;7.10;;
59938;SDS011;45801;51.810;19.444;2022-10-29T08:56:47;16.60;;;6.80;;
59938;SDS011;45801;51.810;19.444;2022-10-29T09:26:06;16.40;;;7.90;;
59938;SDS011;45801;51.810;19.444;2022-10-29T09:39:19;17.40;;;8.10;;
59938;SDS011;45801;51.810;19.444;2022-10-29T09:56:00;15.40;;;8.60;;
59938;SDS011;45801;51.810;19.444;2022-10-29T10:02:34;15.60;;;7.80;;
59938;SDS011;45801;51.810;19.444;2022-10-29T10:05:04;16.80;;;7.70;;
59938;SDS011;45801;51.810;19.444;2022-10-29T10:11:41;17.70;;;8.40;;
59938;SDS011;45801;51.810;19.444;2022-10-29T10:25:38;12.60;;;7.70;;
59938;SDS011;45801;51.810;19.444;2022-10-29T11:15:23;15.50;;;6.90;;
59938;SDS011;45801;51.810;19.444;2022-10-29T11:22:19;16.00;;;6.90;;
59938;SDS011;45801;51.810;19.444;2022-10-29T11:43:12;12.80;;;7.10;;
59938;SDS011;45801;51.810;19.444;2022-10-29T11:56:21;12.60;;;6.50;;
59938;SDS011;45801;51.810;19.444;2022-10-29T12:21:03;10.30;;;5.00;;
59938;SDS011;45801;51.810;19.444;2022-10-29T12:23:52;11.50;;;6.00;;
59938;SDS011;45801;51.810;19.444;2022-10-29T12:26:34;11.70;;;6.40;;
59938;SDS011;45801;51.810;19.444;2022-10-29T12:35:05;12.10;;;5.70;;
59938;SDS011;45801;51.810;19.444;2022-10-29T12:37:42;15.20;;;6.40;;
59938;SDS011;45801;51.810;19.444;2022-10-29T12:40:29;15.90;;;6.10;;
59938;SDS011;45801;51.810;19.444;2022-10-29T12:43:04;13.50;;;5.80;;
59938;SDS011;45801;51.810;19.444;2022-10-29T12:45:40;12.30;;;5.60;;
59938;SDS011;45801;51.810;19.444;2022-10-29T12:56:29;11.10;;;5.30;;
59938;SDS011;45801;51.810;19.444;2022-10-29T12:58:57;12.70;;;5.20;;
59938;SDS011;45801;51.810;19.444;2022-10-29T13:01:43;12.10;;;5.20;;
59938;SDS011;45801;51.810;19.444;2022-10-29T13:04:29;11.10;;;5.20;;
59938;SDS011;45801;51.810;19.444;2022-10-29T13:09:47;12.80;;;5.70;;
59938;SDS011;45801;51.810;19.444;2022-10-29T13:12:13;14.80;;;5.10;;
59938;SDS011;45801;51.810;19.444;2022-10-29T13:15:18;8.50;;;4.00;;
59938;SDS011;45801;51.810;19.444;2022-10-29T13:17:47;12.50;;;4.10;;
59938;SDS011;45801;51.810;19.444;2022-10-29T13:25:26;10.10;;;4.40;;
59938;SDS011;45801;51.810;19.444;2022-10-29T13:27:58;10.50;;;4.40;;
59938;SDS011;45801;51.810;19.444;2022-10-29T13:30:26;10.80;;;4.40;;
59938;SDS011;45801;51.810;19.444;2022-10-29T13:32:53;12.10;;;4.30;;
59938;SDS011;45801;51.810;19.444;2022-10-29T13:40:36;10.60;;;4.10;;
59938;SDS011;45801;51.810;19.444;2022-10-29T13:43:00;11.40;;;3.90;;
59938;SDS011;45801;51.810;19.444;2022-10-29T13:45:34;9.30;;;4.40;;
59938;SDS011;45801;51.810;19.444;2022-10-29T13:48:04;11.20;;;4.40;;
59938;SDS011;45801;51.810;19.444;2022-10-29T13:50:41;12.40;;;4.60;;
59938;SDS011;45801;51.810;19.444;2022-10-29T13:53:09;12.00;;;4.60;;
59938;SDS011;45801;51.810;19.444;2022-10-29T13:55:37;11.50;;;4.70;;
59938;SDS011;45801;51.810;19.444;2022-10-29T14:00:40;12.40;;;5.20;;
59938;SDS011;45801;51.810;19.444;2022-10-29T14:06:01;14.10;;;6.20;;
59938;SDS011;45801;51.810;19.444;2022-10-29T14:11:24;12.70;;;5.10;;
59938;SDS011;45801;51.810;19.444;2022-10-29T14:13:56;12.40;;;5.50;;
59938;SDS011;45801;51.810;19.444;2022-10-29T14:16:30;13.30;;;5.90;;
59938;SDS011;45801;51.810;19.444;2022-10-29T14:18:58;13.90;;;6.10;;
59938;SDS011;45801;51.810;19.444;2022-10-29T14:21:38;13.20;;;5.60;;
59938;SDS011;45801;51.810;19.444;2022-10-29T14:24:05;11.20;;;4.90;;
59938;SDS011;45801;51.810;19.444;2022-10-29T14:26:34;14.90;;;6.30;;
59938;SDS011;45801;51.810;19.444;2022-10-29T14:29:18;14.30;;;5.80;;
59938;SDS011;45801;51.810;19.444;2022-10-29T14:31:46;15.10;;;6.00;;
59938;SDS011;45801;51.810;19.444;2022-10-29T14:34:25;12.30;;;6.20;;
59938;SDS011;45801;51.810;19.444;2022-10-29T14:36:52;16.10;;;6.70;;
59938;SDS011;45801;51.810;19.444;2022-10-29T14:39:24;12.90;;;6.60;;
59938;SDS011;45801;51.810;19.444;2022-10-29T14:41:53;14.60;;;7.10;;
59938;SDS011;45801;51.810;19.444;2022-10-29T14:44:32;14.50;;;6.50;;
59938;SDS011;45801;51.810;19.444;2022-10-29T14:47:21;13.00;;;6.40;;
59938;SDS011;45801;51.810;19.444;2022-10-29T14:49:55;14.50;;;6.20;;
59938;SDS011;45801;51.810;19.444;2022-10-29T14:52:32;11.90;;;5.80;;
59938;SDS011;45801;51.810;19.444;2022-10-29T14:55:05;13.70;;;6.30;;
59938;SDS011;45801;51.810;19.444;2022-10-29T14:57:34;14.30;;;6.50;;
59938;SDS011;45801;51.810;19.444;2022-10-29T15:00:20;13.10;;;6.60;;
59938;SDS011;45801;51.810;19.444;2022-10-29T15:02:48;13.80;;;6.60;;
59938;SDS011;45801;51.810;19.444;2022-10-29T15:07:51;14.60;;;6.40;;
59938;SDS011;45801;51.810;19.444;2022-10-29T15:10:30;12.60;;;6.90;;
59938;SDS011;45801;51.810;19.444;2022-10-29T15:12:56;16.80;;;7.50;;
59938;SDS011;45801;51.810;19.444;2022-10-29T15:15:23;18.00;;;7.60;;
59938;SDS011;45801;51.810;19.444;2022-10-29T15:17:56;12.80;;;6.90;;
59938;SDS011;45801;51.810;19.444;2022-10-29T15:20:49;15.10;;;6.50;;
59938;SDS011;45801;51.810;19.444;2022-10-29T15:28:53;15.60;;;8.10;;
59938;SDS011;45801;51.810;19.444;2022-10-29T15:31:21;15.00;;;8.00;;
59938;SDS011;45801;51.810;19.444;2022-10-29T15:33:49;19.70;;;9.30;;
59938;SDS011;45801;51.810;19.444;2022-10-29T15:36:16;17.80;;;8.80;;
59938;SDS011;45801;51.810;19.444;2022-10-29T15:41:35;19.30;;;9.70;;
59938;SDS011;45801;51.810;19.444;2022-10-29T15:46:49;18.20;;;8.30;;
59938;SDS011;45801;51.810;19.444;2022-10-29T15:49:17;16.60;;;9.90;;
59938;SDS011;45801;51.810;19.444;2022-10-29T15:51:47;15.30;;;8.70;;
59938;SDS011;45801;51.810;19.444;2022-10-29T15:54:12;16.50;;;9.20;;
59938;SDS011;45801;51.810;19.444;2022-10-29T15:56:39;15.50;;;9.00;;
59938;SDS011;45801;51.810;19.444;2022-10-29T15:59:05;17.80;;;9.50;;
59938;SDS011;45801;51.810;19.444;2022-10-29T16:01:34;19.70;;;10.30;;
59938;SDS011;45801;51.810;19.444;2022-10-29T16:03:59;20.50;;;8.80;;
59938;SDS011;45801;51.810;19.444;2022-10-29T16:06:25;18.20;;;9.70;;
59938;SDS011;45801;51.810;19.444;2022-10-29T16:08:52;20.10;;;10.40;;
59938;SDS011;45801;51.810;19.444;2022-10-29T16:11:20;19.00;;;9.40;;
59938;SDS011;45801;51.810;19.444;2022-10-29T16:13:47;21.30;;;10.30;;
59938;SDS011;45801;51.810;19.444;2022-10-29T16:16:15;18.60;;;9.80;;
59938;SDS011;45801;51.810;19.444;2022-10-29T16:18:43;19.30;;;10.70;;
59938;SDS011;45801;51.810;19.444;2022-10-29T16:21:11;16.80;;;9.90;;
59938;SDS011;45801;51.810;19.444;2022-10-29T16:23:39;19.60;;;10.00;;
59938;SDS011;45801;51.810;19.444;2022-10-29T16:26:07;17.70;;;11.00;;
59938;SDS011;45801;51.810;19.444;2022-10-29T16:28:34;20.80;;;12.40;;
59938;SDS011;45801;51.810;19.444;2022-10-29T16:31:00;20.40;;;15.10;;
59938;SDS011;45801;51.810;19.444;2022-10-29T16:33:25;23.10;;;13.70;;
59938;SDS011;45801;51.810;19.444;2022-10-29T16:35:51;19.60;;;13.50;;
59938;SDS011;45801;51.810;19.444;2022-10-29T16:38:17;22.30;;;14.00;;
59938;SDS011;45801;51.810;19.444;2022-10-29T16:40:43;26.40;;;22.80;;
59938;SDS011;45801;51.810;19.444;2022-10-29T16:43:10;23.90;;;17.10;;
59938;SDS011;45801;51.810;19.444;2022-10-29T16:45:36;23.90;;;16.10;;
59938;SDS011;45801;51.810;19.444;2022-10-29T16:48:03;25.30;;;15.80;;
59938;SDS011;45801;51.810;19.444;2022-10-29T16:50:29;24.60;;;15.50;;
59938;SDS011;45801;51.810;19.444;2022-10-29T16:53:07;21.90;;;13.90;;
59938;SDS011;45801;51.810;19.444;2022-10-29T16:55:38;26.00;;;15.10;;
59938;SDS011;45801;51.810;19.444;2022-10-29T16:58:05;24.40;;;14.30;;
59938;SDS011;45801;51.810;19.444;2022-10-29T17:00:33;23.10;;;13.90;;
59938;SDS011;45801;51.810;19.444;2022-10-29T17:03:01;20.60;;;14.70;;
59938;SDS011;45801;51.810;19.444;2022-10-29T17:05:28;25.10;;;15.40;;
59938;SDS011;45801;51.810;19.444;2022-10-29T17:07:54;22.10;;;14.20;;
59938;SDS011;45801;51.810;19.444;2022-10-29T17:10:21;24.20;;;14.30;;
59938;SDS011;45801;51.810;19.444;2022-10-29T17:12:47;22.80;;;15.00;;
59938;SDS011;45801;51.810;19.444;2022-10-29T17:15:13;19.40;;;14.10;;
59938;SDS011;45801;51.810;19.444;2022-10-29T17:17:39;21.00;;;12.90;;
59938;SDS011;45801;51.810;19.444;2022-10-29T17:20:05;23.90;;;15.30;;
59938;SDS011;45801;51.810;19.444;2022-10-29T17:22:32;23.30;;;14.60;;
59938;SDS011;45801;51.810;19.444;2022-10-29T17:24:58;19.70;;;13.30;;
59938;SDS011;45801;51.810;19.444;2022-10-29T17:27:23;21.40;;;12.00;;
59938;SDS011;45801;51.810;19.444;2022-10-29T17:29:49;20.60;;;11.90;;
59938;SDS011;45801;51.810;19.444;2022-10-29T17:32:15;24.30;;;12.60;;
59938;SDS011;45801;51.810;19.444;2022-10-29T17:34:41;20.10;;;13.00;;
59938;SDS011;45801;51.810;19.444;2022-10-29T17:37:06;20.80;;;12.20;;
59938;SDS011;45801;51.810;19.444;2022-10-29T17:39:33;22.90;;;12.70;;
59938;SDS011;45801;51.810;19.444;2022-10-29T17:41:59;20.30;;;12.40;;
59938;SDS011;45801;51.810;19.444;2022-10-29T17:44:25;17.80;;;11.80;;
59938;SDS011;45801;51.810;19.444;2022-10-29T17:46:52;18.90;;;10.90;;
59938;SDS011;45801;51.810;19.444;2022-10-29T17:49:19;19.10;;;11.00;;
59938;SDS011;45801;51.810;19.444;2022-10-29T17:51:45;18.10;;;11.10;;
59938;SDS011;45801;51.810;19.444;2022-10-29T17:54:11;19.50;;;11.30;;
59938;SDS011;45801;51.810;19.444;2022-10-29T17:56:38;20.50;;;11.20;;
59938;SDS011;45801;51.810;19.444;2022-10-29T17:59:04;18.30;;;10.20;;
59938;SDS011;45801;51.810;19.444;2022-10-29T18:01:30;22.70;;;17.30;;
59938;SDS011;45801;51.810;19.444;2022-10-29T18:04:02;23.10;;;17.40;;
59938;SDS011;45801;51.810;19.444;2022-10-29T18:06:30;24.70;;;17.70;;
59938;SDS011;45801;51.810;19.444;2022-10-29T18:08:58;18.90;;;12.50;;
59938;SDS011;45801;51.810;19.444;2022-10-29T18:11:24;20.90;;;12.90;;
59938;SDS011;45801;51.810;19.444;2022-10-29T18:13:50;21.20;;;12.40;;
59938;SDS011;45801;51.810;19.444;2022-10-29T18:16:17;20.60;;;14.10;;
59938;SDS011;45801;51.810;19.444;2022-10-29T18:18:45;20.60;;;13.60;;
59938;SDS011;45801;51.810;19.444;2022-10-29T18:21:13;23.20;;;14.50;;
59938;SDS011;45801;51.810;19.444;2022-10-29T18:23:40;22.90;;;14.70;;
59938;SDS011;45801;51.810;19.444;2022-10-29T18:26:18;20.40;;;14.60;;
59938;SDS011;45801;51.810;19.444;2022-10-29T18:28:46;24.90;;;14.70;;
59938;SDS011;45801;51.810;19.444;2022-10-29T18:31:13;21.40;;;15.20;;
59938;SDS011;45801;51.810;19.444;2022-10-29T18:33:39;22.30;;;14.20;;
59938;SDS011;45801;51.810;19.444;2022-10-29T18:36:05;22.30;;;14.10;;
59938;SDS011;45801;51.810;19.444;2022-10-29T18:38:31;21.20;;;14.10;;
59938;SDS011;45801;51.810;19.444;2022-10-29T18:40:56;20.70;;;12.40;;
59938;SDS011;45801;51.810;19.444;2022-10-29T18:43:23;23.00;;;14.00;;
59938;SDS011;45801;51.810;19.444;2022-10-29T18:45:57;21.20;;;13.30;;
59938;SDS011;45801;51.810;19.444;2022-10-29T18:48:24;22.40;;;13.80;;
59938;SDS011;45801;51.810;19.444;2022-10-29T18:50:53;20.30;;;13.70;;
59938;SDS011;45801;51.810;19.444;2022-10-29T18:53:28;21.90;;;13.90;;
59938;SDS011;45801;51.810;19.444;2022-10-29T18:55:53;22.90;;;14.60;;
59938;SDS011;45801;51.810;19.444;2022-10-29T18:58:19;22.50;;;14.50;;
59938;SDS011;45801;51.810;19.444;2022-10-29T19:00:46;22.50;;;14.40;;
59938;SDS011;45801;51.810;19.444;2022-10-29T19:03:13;30.20;;;15.70;;
59938;SDS011;45801;51.810;19.444;2022-10-29T19:05:39;23.20;;;14.70;;
59938;SDS011;45801;51.810;19.444;2022-10-29T19:08:06;22.80;;;13.90;;
59938;SDS011;45801;51.810;19.444;2022-10-29T19:10:34;23.60;;;14.50;;
59938;SDS011;45801;51.810;19.444;2022-10-29T19:13:01;20.60;;;13.70;;
59938;SDS011;45801;51.810;19.444;2022-10-29T19:15:27;22.10;;;13.40;;
59938;SDS011;45801;51.810;19.444;2022-10-29T19:17:52;24.00;;;14.30;;
59938;SDS011;45801;51.810;19.444;2022-10-29T19:20:18;21.90;;;13.90;;
59938;SDS011;45801;51.810;19.444;2022-10-29T19:22:43;23.80;;;13.70;;
59938;SDS011;45801;51.810;19.444;2022-10-29T19:25:09;23.80;;;14.10;;
59938;SDS011;45801;51.810;19.444;2022-10-29T19:27:35;23.30;;;14.00;;
59938;SDS011;45801;51.810;19.444;2022-10-29T19:30:00;22.60;;;14.20;;
59938;SDS011;45801;51.810;19.444;2022-10-29T19:32:26;26.10;;;15.40;;
59938;SDS011;45801;51.810;19.444;2022-10-29T19:34:52;24.60;;;14.20;;
59938;SDS011;45801;51.810;19.444;2022-10-29T19:37:17;22.10;;;15.00;;
59938;SDS011;45801;51.810;19.444;2022-10-29T19:39:43;27.00;;;15.10;;
59938;SDS011;45801;51.810;19.444;2022-10-29T19:42:09;21.90;;;14.00;;
59938;SDS011;45801;51.810;19.444;2022-10-29T19:44:34;26.30;;;15.20;;
59938;SDS011;45801;51.810;19.444;2022-10-29T19:47:00;23.00;;;15.00;;
59938;SDS011;45801;51.810;19.444;2022-10-29T19:49:26;23.50;;;14.20;;
59938;SDS011;45801;51.810;19.444;2022-10-29T19:51:51;24.30;;;15.90;;
59938;SDS011;45801;51.810;19.444;2022-10-29T19:54:17;27.30;;;17.50;;
59938;SDS011;45801;51.810;19.444;2022-10-29T19:56:44;30.10;;;17.40;;
59938;SDS011;45801;51.810;19.444;2022-10-29T19:59:10;26.90;;;18.20;;
59938;SDS011;45801;51.810;19.444;2022-10-29T20:01:35;25.60;;;17.80;;
59938;SDS011;45801;51.810;19.444;2022-10-29T20:04:03;26.50;;;17.40;;
59938;SDS011;45801;51.810;19.444;2022-10-29T20:06:29;26.20;;;17.20;;
59938;SDS011;45801;51.810;19.444;2022-10-29T20:08:54;26.50;;;15.90;;
59938;SDS011;45801;51.810;19.444;2022-10-29T20:11:20;25.90;;;17.00;;
59938;SDS011;45801;51.810;19.444;2022-10-29T20:13:46;24.20;;;16.20;;
59938;SDS011;45801;51.810;19.444;2022-10-29T20:16:13;28.60;;;16.80;;
59938;SDS011;45801;51.810;19.444;2022-10-29T20:18:41;23.60;;;16.40;;
59938;SDS011;45801;51.810;19.444;2022-10-29T20:21:07;23.80;;;15.90;;
59938;SDS011;45801;51.810;19.444;2022-10-29T20:23:33;21.60;;;15.80;;
59938;SDS011;45801;51.810;19.444;2022-10-29T20:25:59;26.60;;;16.60;;
59938;SDS011;45801;51.810;19.444;2022-10-29T20:28:25;26.20;;;17.40;;
59938;SDS011;45801;51.810;19.444;2022-10-29T20:31:07;25.70;;;16.00;;
59938;SDS011;45801;51.810;19.444;2022-10-29T20:33:57;25.90;;;16.80;;
59938;SDS011;45801;51.810;19.444;2022-10-29T20:36:25;24.40;;;16.90;;
59938;SDS011;45801;51.810;19.444;2022-10-29T20:38:53;23.70;;;16.50;;
59938;SDS011;45801;51.810;19.444;2022-10-29T20:41:20;24.90;;;16.80;;
59938;SDS011;45801;51.810;19.444;2022-10-29T20:43:50;25.40;;;15.70;;
59938;SDS011;45801;51.810;19.444;2022-10-29T20:46:27;23.00;;;15.40;;
59938;SDS011;45801;51.810;19.444;2022-10-29T20:48:54;28.20;;;17.70;;
59938;SDS011;45801;51.810;19.444;2022-10-29T20:51:20;28.60;;;22.00;;
59938;SDS011;45801;51.810;19.444;2022-10-29T20:53:47;29.10;;;18.70;;
59938;SDS011;45801;51.810;19.444;2022-10-29T20:56:13;23.50;;;16.80;;
59938;SDS011;45801;51.810;19.444;2022-10-29T20:58:39;22.90;;;16.40;;
59938;SDS011;45801;51.810;19.444;2022-10-29T21:03:36;22.90;;;15.90;;
59938;SDS011;45801;51.810;19.444;2022-10-29T21:06:02;24.50;;;16.60;;
59938;SDS011;45801;51.810;19.444;2022-10-29T21:08:29;26.60;;;18.00;;
59938;SDS011;45801;51.810;19.444;2022-10-29T21:11:01;23.40;;;15.80;;
59938;SDS011;45801;51.810;19.444;2022-10-29T21:13:29;23.90;;;17.20;;
59938;SDS011;45801;51.810;19.444;2022-10-29T21:16:02;23.20;;;16.90;;
59938;SDS011;45801;51.810;19.444;2022-10-29T21:18:30;26.80;;;18.20;;
59938;SDS011;45801;51.810;19.444;2022-10-29T21:21:01;23.50;;;16.30;;
59938;SDS011;45801;51.810;19.444;2022-10-29T21:23:27;24.80;;;17.20;;
59938;SDS011;45801;51.810;19.444;2022-10-29T21:25:53;25.10;;;15.80;;
59938;SDS011;45801;51.810;19.444;2022-10-29T21:28:19;24.70;;;16.20;;
59938;SDS011;45801;51.810;19.444;2022-10-29T21:30:44;25.30;;;16.70;;
59938;SDS011;45801;51.810;19.444;2022-10-29T21:33:10;23.60;;;15.30;;
59938;SDS011;45801;51.810;19.444;2022-10-29T21:35:35;22.80;;;16.20;;
59938;SDS011;45801;51.810;19.444;2022-10-29T21:38:01;26.90;;;16.90;;
59938;SDS011;45801;51.810;19.444;2022-10-29T21:40:27;21.70;;;15.70;;
59938;SDS011;45801;51.810;19.444;2022-10-29T21:42:53;27.60;;;16.60;;
59938;SDS011;45801;51.810;19.444;2022-10-29T21:45:19;22.90;;;16.70;;
59938;SDS011;45801;51.810;19.444;2022-10-29T21:47:46;24.40;;;16.60;;
59938;SDS011;45801;51.810;19.444;2022-10-29T21:50:13;24.30;;;16.10;;
59938;SDS011;45801;51.810;19.444;2022-10-29T21:52:39;22.00;;;15.60;;
59938;SDS011;45801;51.810;19.444;2022-10-29T21:55:05;25.40;;;15.60;;
59938;SDS011;45801;51.810;19.444;2022-10-29T21:57:31;23.50;;;15.90;;
59938;SDS011;45801;51.810;19.444;2022-10-29T21:59:57;24.80;;;16.20;;
59938;SDS011;45801;51.810;19.444;2022-10-29T22:02:22;24.10;;;15.60;;
59938;SDS011;45801;51.810;19.444;2022-10-29T22:04:48;25.10;;;16.50;;
59938;SDS011;45801;51.810;19.444;2022-10-29T22:07:13;23.50;;;15.80;;
59938;SDS011;45801;51.810;19.444;2022-10-29T22:09:39;24.60;;;16.10;;
59938;SDS011;45801;51.810;19.444;2022-10-29T22:12:05;22.60;;;15.10;;
59938;SDS011;45801;51.810;19.444;2022-10-29T22:14:30;22.90;;;16.50;;
59938;SDS011;45801;51.810;19.444;2022-10-29T22:16:56;30.30;;;16.60;;
59938;SDS011;45801;51.810;19.444;2022-10-29T22:19:23;25.80;;;17.00;;
59938;SDS011;45801;51.810;19.444;2022-10-29T22:21:49;23.20;;;15.20;;
59938;SDS011;45801;51.810;19.444;2022-10-29T22:24:15;27.20;;;16.60;;
59938;SDS011;45801;51.810;19.444;2022-10-29T22:26:40;24.50;;;16.30;;
59938;SDS011;45801;51.810;19.444;2022-10-29T22:29:06;25.20;;;15.50;;
59938;SDS011;45801;51.810;19.444;2022-10-29T22:31:32;22.80;;;15.30;;
59938;SDS011;45801;51.810;19.444;2022-10-29T22:33:58;23.80;;;15.00;;
59938;SDS011;45801;51.810;19.444;2022-10-29T22:36:24;25.60;;;17.30;;
59938;SDS011;45801;51.810;19.444;2022-10-29T22:38:51;24.50;;;15.20;;
59938;SDS011;45801;51.810;19.444;2022-10-29T22:41:18;24.20;;;14.90;;
59938;SDS011;45801;51.810;19.444;2022-10-29T22:43:44;22.10;;;16.00;;
59938;SDS011;45801;51.810;19.444;2022-10-29T22:46:13;25.40;;;17.70;;
59938;SDS011;45801;51.810;19.444;2022-10-29T22:48:41;24.50;;;16.00;;
59938;SDS011;45801;51.810;19.444;2022-10-29T22:51:22;27.60;;;17.10;;
59938;SDS011;45801;51.810;19.444;2022-10-29T22:53:52;28.10;;;17.60;;
59938;SDS011;45801;51.810;19.444;2022-10-29T22:56:23;25.90;;;17.20;;
59938;SDS011;45801;51.810;19.444;2022-10-29T23:01:17;23.50;;;16.00;;
59938;SDS011;45801;51.810;19.444;2022-10-29T23:03:45;23.40;;;16.70;;
59938;SDS011;45801;51.810;19.444;2022-10-29T23:06:13;25.20;;;17.20;;
59938;SDS011;45801;51.810;19.444;2022-10-29T23:08:41;24.20;;;17.50;;
59938;SDS011;45801;51.810;19.444;2022-10-29T23:11:11;24.90;;;17.40;;
59938;SDS011;45801;51.810;19.444;2022-10-29T23:13:53;26.90;;;17.30;;
59938;SDS011;45801;51.810;19.444;2022-10-29T23:16:21;30.10;;;17.20;;
59938;SDS011;45801;51.810;19.444;2022-10-29T23:18:48;26.20;;;18.70;;
59938;SDS011;45801;51.810;19.444;2022-10-29T23:21:15;26.00;;;16.70;;
59938;SDS011;45801;51.810;19.444;2022-10-29T23:23:41;25.10;;;18.60;;
59938;SDS011;45801;51.810;19.444;2022-10-29T23:26:07;14.30;;;8.20;;
59938;SDS011;45801;51.810;19.444;2022-10-29T23:28:36;23.60;;;16.10;;
59938;SDS011;45801;51.810;19.444;2022-10-29T23:31:04;23.60;;;15.90;;
59938;SDS011;45801;51.810;19.444;2022-10-29T23:33:44;23.10;;;17.00;;
59938;SDS011;45801;51.810;19.444;2022-10-29T23:36:12;23.70;;;16.10;;
59938;SDS011;45801;51.810;19.444;2022-10-29T23:38:39;29.30;;;18.20;;
59938;SDS011;45801;51.810;19.444;2022-10-29T23:41:05;27.80;;;18.60;;
59938;SDS011;45801;51.810;19.444;2022-10-29T23:43:31;25.30;;;16.30;;
59938;SDS011;45801;51.810;19.444;2022-10-29T23:45:57;23.20;;;16.90;;
59938;SDS011;45801;51.810;19.444;2022-10-29T23:48:22;25.50;;;17.50;;
59938;SDS011;45801;51.810;19.444;2022-10-29T23:50:49;24.00;;;17.60;;
59938;SDS011;45801;51.810;19.444;2022-10-29T23:53:15;27.80;;;19.20;;
59938;SDS011;45801;51.810;19.444;2022-10-29T23:55:42;26.00;;;18.10;;
59938;SDS011;45801;51.810;19.444;2022-10-29T23:58:08;29.20;;;17.00;;
